createdAt,value
2018-04-12T00:01:55.956Z,32.03
2018-04-12T00:04:25.809Z,32.10
2018-04-12T00:06:54.904Z,30.17
2018-04-12T00:09:28.400Z,30.77
2018-04-12T00:11:58.067Z,32.73
2018-04-12T00:14:27.151Z,33.17
2018-04-12T00:16:56.997Z,31.23
2018-04-12T00:19:26.107Z,31.40
2018-04-12T00:21:55.768Z,32.10
2018-04-12T00:24:24.900Z,33.10
2018-04-12T00:26:54.024Z,32.20
2018-04-12T00:29:23.910Z,31.70
2018-04-12T00:31:52.991Z,30.90
2018-04-12T00:34:22.073Z,31.40
2018-04-12T00:36:51.920Z,32.60
2018-04-12T00:39:21.083Z,30.47
2018-04-12T00:41:50.947Z,30.97
2018-04-12T00:44:20.791Z,29.90
2018-04-12T00:46:49.903Z,30.60
2018-04-12T00:49:19.047Z,32.27
2018-04-12T00:51:48.930Z,32.17
2018-04-12T00:54:18.776Z,30.83
2018-04-12T00:56:47.910Z,31.83
2018-04-12T00:59:16.966Z,32.00
2018-04-12T01:01:46.855Z,31.80
2018-04-12T01:04:15.960Z,30.93
2018-04-12T01:06:45.046Z,31.30
2018-04-12T01:09:14.176Z,32.67
2018-04-12T01:11:43.252Z,32.60
2018-04-12T01:14:12.330Z,34.00
2018-04-12T01:16:41.410Z,34.13
2018-04-12T01:19:10.487Z,31.73
2018-04-12T01:21:39.607Z,32.73
2018-04-12T01:24:08.696Z,32.43
2018-04-12T01:26:37.864Z,33.20
2018-04-12T01:29:06.976Z,35.07
2018-04-12T01:31:36.091Z,32.37
2018-04-12T01:34:05.244Z,31.70
2018-04-12T01:36:34.404Z,33.25
2018-04-12T01:39:03.482Z,33.00
2018-04-12T01:41:32.603Z,32.97
2018-04-12T01:44:01.690Z,32.35
2018-04-12T01:46:30.776Z,32.83
2018-04-12T01:49:00.631Z,32.55
2018-04-12T01:51:29.796Z,32.92
2018-04-12T01:53:58.883Z,34.50
2018-04-12T01:56:27.968Z,33.45
2018-04-12T01:58:57.085Z,34.00
2018-04-12T02:47:00.971Z,36.78
2018-04-12T02:49:30.061Z,36.03
2018-04-12T02:51:59.907Z,36.80
2018-04-12T02:54:28.996Z,37.65
2018-04-12T02:56:58.888Z,37.75
2018-04-12T02:59:28.018Z,37.45
2018-04-12T03:01:57.904Z,38.22
2018-04-12T03:04:27.051Z,36.28
2018-04-12T03:06:56.139Z,36.55
2018-04-12T03:09:25.276Z,37.33
2018-04-12T03:11:54.429Z,34.90
2018-04-12T03:14:23.783Z,37.90
2018-04-12T03:16:52.929Z,36.45
2018-04-12T03:19:22.778Z,34.35
2018-04-12T03:21:51.855Z,35.60
2018-04-12T03:24:20.944Z,36.60
2018-04-12T03:26:50.834Z,37.03
2018-04-12T03:29:19.944Z,36.15
2018-04-12T03:31:49.061Z,37.47
2018-04-12T03:34:18.183Z,38.95
2018-04-12T03:36:47.263Z,37.20
2018-04-12T03:39:17.268Z,38.42
2018-04-12T03:41:47.165Z,37.78
2018-04-12T03:44:16.309Z,37.10
2018-04-12T03:46:45.391Z,39.28
2018-04-12T03:49:14.548Z,38.22
2018-04-12T03:51:43.623Z,39.60
2018-04-12T03:54:12.732Z,39.72
2018-04-12T03:56:42.618Z,37.53
2018-04-12T03:59:11.728Z,38.92
2018-04-12T04:01:40.843Z,38.40
2018-04-12T04:04:09.979Z,41.20
2018-04-12T04:06:39.107Z,40.63
2018-04-12T04:09:08.182Z,40.50
2018-04-12T04:11:37.294Z,42.65
2018-04-12T04:14:06.408Z,40.58
2018-04-12T04:16:53.656Z,39.47
2018-04-12T04:19:40.427Z,40.47
2018-04-12T04:22:10.387Z,37.63
2018-04-12T04:24:39.525Z,40.35
2018-04-12T04:27:08.679Z,39.97
2018-04-12T04:29:38.553Z,39.30
2018-04-12T04:32:07.638Z,39.97
2018-04-12T04:34:36.752Z,41.15
2018-04-12T04:37:05.891Z,39.17
2018-04-12T04:39:35.004Z,40.67
2018-04-12T04:42:04.111Z,38.92
2018-04-12T04:44:33.235Z,38.33
2018-04-12T04:47:02.444Z,38.72
2018-04-12T04:49:31.558Z,39.28
2018-04-12T04:52:00.643Z,39.15
2018-04-12T04:54:29.772Z,37.25
2018-04-12T04:56:58.884Z,38.30
2018-04-12T04:59:28.006Z,36.42
2018-04-12T05:01:57.897Z,38.72
2018-04-12T05:04:26.991Z,37.35
2018-04-12T05:06:56.100Z,38.08
2018-04-12T05:09:25.219Z,35.13
2018-04-12T05:11:54.350Z,38.70
2018-04-12T05:14:23.433Z,37.35
2018-04-12T05:16:52.550Z,36.42
2018-04-12T05:19:21.692Z,37.83
2018-04-12T05:21:50.964Z,36.40
2018-04-12T05:24:20.081Z,35.90
2018-04-12T05:26:49.177Z,36.65
2018-04-12T05:29:19.027Z,37.13
2018-04-12T05:31:48.116Z,34.40
2018-04-12T05:34:17.997Z,35.80
2018-04-12T05:36:47.854Z,37.47
2018-04-12T05:39:16.943Z,35.40
2018-04-12T05:41:46.060Z,34.75
2018-04-12T05:44:15.143Z,35.53
2018-04-12T05:46:44.257Z,36.33
2018-04-12T05:49:13.343Z,35.50
2018-04-12T05:51:44.237Z,34.20
2018-04-12T05:54:13.330Z,35.40
2018-04-12T05:56:42.505Z,35.47
2018-04-12T05:59:11.591Z,34.47
2018-04-12T06:01:41.658Z,33.70
2018-04-12T06:04:10.807Z,34.65
2018-04-12T06:06:39.896Z,33.67
2018-04-12T06:09:09.006Z,35.60
2018-04-12T06:11:38.095Z,31.33
2018-04-12T06:14:07.220Z,31.83
2018-04-12T06:16:36.393Z,31.00
2018-04-12T06:19:05.520Z,31.00
2018-04-12T06:21:34.607Z,30.95
2018-04-12T06:24:03.686Z,29.27
2018-04-12T06:26:32.803Z,31.87
2018-04-12T06:29:01.929Z,31.47
2018-04-12T06:31:31.049Z,32.10
2018-04-12T06:34:00.168Z,28.43
2018-04-12T06:36:29.280Z,29.53
2018-04-12T06:38:59.161Z,26.73
2018-04-12T06:41:28.600Z,29.93
2018-04-12T06:43:57.687Z,27.20
2018-04-12T06:46:26.792Z,27.83
2018-04-12T06:48:55.980Z,28.13
2018-04-12T06:51:25.092Z,27.27
2018-04-12T06:53:54.206Z,27.83
2018-04-12T06:56:23.350Z,27.13
2018-04-12T06:58:52.469Z,28.17
2018-04-12T07:01:21.605Z,26.93
2018-04-12T07:03:50.691Z,24.70
2018-04-12T07:06:19.914Z,25.53
2018-04-12T07:08:49.032Z,25.63
2018-04-12T07:11:18.119Z,25.07
2018-04-12T07:13:47.580Z,27.30
2018-04-12T07:16:18.279Z,24.20
2018-04-12T07:18:47.364Z,24.80
2018-04-12T07:21:16.479Z,27.50
2018-04-12T07:23:45.620Z,25.27
2018-04-12T07:26:14.785Z,25.40
2018-04-12T07:28:44.851Z,25.63
2018-04-12T07:31:13.935Z,24.10
2018-04-12T07:33:43.167Z,25.43
2018-04-12T07:36:12.405Z,24.67
2018-04-12T07:38:41.521Z,24.23
2018-04-12T07:41:10.637Z,24.93
2018-04-12T07:43:39.870Z,24.60
2018-04-12T07:46:09.748Z,24.90
2018-04-12T07:48:39.634Z,25.50
2018-04-12T07:51:09.541Z,24.20
2018-04-12T07:53:38.659Z,23.23
2018-04-12T07:56:08.026Z,24.80
2018-04-12T07:58:37.138Z,24.23
2018-04-12T08:01:06.215Z,22.83
2018-04-12T08:03:36.079Z,24.63
2018-04-12T08:06:05.179Z,22.50
2018-04-12T08:08:34.327Z,21.80
2018-04-12T08:11:03.429Z,24.10
2018-04-12T08:13:32.617Z,21.03
2018-04-12T08:16:01.747Z,22.83
2018-04-12T08:18:30.909Z,21.00
2018-04-12T08:21:00.784Z,23.43
2018-04-12T08:23:30.636Z,20.73
2018-04-12T08:25:59.789Z,21.53
2018-04-12T08:28:28.900Z,19.13
2018-04-12T08:30:58.009Z,20.60
2018-04-12T08:33:27.095Z,20.87
2018-04-12T08:35:56.259Z,19.83
2018-04-12T08:38:25.377Z,19.90
2018-04-12T08:40:54.544Z,19.90
2018-04-12T08:43:24.390Z,19.10
2018-04-12T08:45:53.577Z,18.10
2018-04-12T08:48:23.435Z,17.80
2018-04-12T08:50:53.252Z,24.97
2018-04-12T08:53:22.323Z,19.30
2018-04-12T08:55:51.448Z,18.17
2018-04-12T08:58:21.292Z,18.00
2018-04-12T09:00:51.165Z,17.07
2018-04-12T09:03:20.302Z,17.87
2018-04-12T09:05:49.480Z,18.50
2018-04-12T09:08:18.597Z,16.00
2018-04-12T09:10:47.675Z,17.73
2018-04-12T09:13:16.776Z,17.70
2018-04-12T09:15:46.644Z,18.10
2018-04-12T09:18:15.723Z,18.70
2018-04-12T09:20:44.820Z,17.40
2018-04-12T09:23:13.896Z,17.67
2018-04-12T09:25:43.045Z,15.80
2018-04-12T09:28:12.122Z,15.50
2018-04-12T09:30:41.203Z,16.33
2018-04-12T09:33:10.364Z,17.53
2018-04-12T09:35:40.207Z,18.23
2018-04-12T09:38:09.317Z,15.37
2018-04-12T09:40:38.402Z,15.97
2018-04-12T09:43:07.572Z,14.97
2018-04-12T09:45:36.652Z,15.20
2018-04-12T09:48:05.784Z,16.00
2018-04-12T09:50:34.897Z,16.67
2018-04-12T09:53:04.076Z,17.03
2018-04-12T09:55:33.948Z,15.90
2018-04-12T09:58:03.093Z,16.53
2018-04-12T10:00:32.969Z,13.63
2018-04-12T10:03:02.038Z,14.17
2018-04-12T10:05:31.108Z,12.33
2018-04-12T10:08:05.853Z,11.10
2018-04-12T10:10:35.020Z,11.03
2018-04-12T10:13:04.859Z,10.80
2018-04-12T10:15:33.951Z,9.80
2018-04-12T10:18:03.810Z,9.63
2018-04-12T10:20:32.924Z,8.70
2018-04-12T10:23:01.988Z,9.00
2018-04-12T10:25:31.100Z,8.47
2018-04-12T10:28:00.192Z,8.53
2018-04-12T10:30:29.288Z,9.07
2018-04-12T10:33:01.216Z,9.20
2018-04-12T10:35:31.107Z,8.63
2018-04-12T10:38:00.371Z,8.57
2018-04-12T10:40:29.468Z,8.77
2018-04-12T10:42:59.334Z,8.10
2018-04-12T10:45:28.432Z,7.60
2018-04-12T10:47:57.514Z,7.33
2018-04-12T10:50:27.416Z,8.10
2018-04-12T10:52:56.516Z,7.60
2018-04-12T10:55:25.579Z,7.43
2018-04-12T10:57:54.651Z,6.80
2018-04-12T11:00:23.748Z,7.90
2018-04-12T11:02:52.844Z,8.17
2018-04-12T11:05:21.965Z,6.80
2018-04-12T11:07:51.069Z,7.33
2018-04-12T11:10:20.167Z,6.27
2018-04-12T11:12:49.380Z,7.03
2018-04-12T11:15:18.483Z,7.27
2018-04-12T11:17:47.591Z,6.30
2018-04-12T11:20:16.647Z,6.97
2018-04-12T11:22:45.727Z,7.50
2018-04-12T11:25:14.820Z,8.43
2018-04-12T11:27:43.885Z,7.30
2018-04-12T11:30:13.006Z,7.30
2018-04-12T11:32:42.079Z,6.90
2018-04-12T11:35:11.174Z,6.57
2018-04-12T11:37:41.048Z,7.40
2018-04-12T11:40:10.879Z,5.93
2018-04-12T11:42:40.735Z,6.43
2018-04-12T11:45:09.855Z,6.03
2018-04-12T11:47:38.962Z,5.83
2018-04-12T11:50:08.077Z,7.10
2018-04-12T11:52:37.159Z,6.40
2018-04-12T11:55:06.991Z,6.30
2018-04-12T11:57:36.852Z,6.47
2018-04-12T12:00:05.976Z,5.60
2018-04-12T12:02:35.049Z,5.63
2018-04-12T12:05:04.195Z,5.70
2018-04-12T12:07:33.302Z,5.63
2018-04-12T12:10:02.435Z,5.67
2018-04-12T12:12:31.496Z,5.87
2018-04-12T12:15:00.612Z,6.53
2018-04-12T12:17:29.707Z,6.13
2018-04-12T12:19:58.790Z,6.00
2018-04-12T12:22:27.848Z,5.30
2018-04-12T12:24:56.979Z,5.80
2018-04-12T12:27:26.048Z,5.20
2018-04-12T12:29:55.132Z,5.77
2018-04-12T12:32:24.997Z,5.83
2018-04-12T12:34:54.058Z,5.13
2018-04-12T12:37:23.156Z,5.53
2018-04-12T12:39:52.228Z,5.37
2018-04-12T12:42:21.479Z,4.17
2018-04-12T12:44:50.576Z,5.20
2018-04-12T12:47:19.642Z,5.90
2018-04-12T12:49:48.760Z,5.33
2018-04-12T12:52:17.860Z,5.50
2018-04-12T12:54:47.688Z,5.43
2018-04-12T12:57:17.589Z,5.97
2018-04-12T12:59:46.650Z,4.83
2018-04-12T13:02:15.739Z,4.63
2018-04-12T13:04:45.563Z,5.00
2018-04-12T13:07:15.387Z,4.80
2018-04-12T13:09:45.295Z,4.23
2018-04-12T13:12:14.355Z,4.00
2018-04-12T13:14:43.415Z,4.57
2018-04-12T13:17:12.579Z,4.73
2018-04-12T13:19:41.643Z,3.73
2018-04-12T13:22:11.472Z,4.20
2018-04-12T13:24:40.679Z,4.20
2018-04-12T13:27:09.780Z,4.00
2018-04-12T13:29:38.871Z,4.10
2018-04-12T13:32:08.137Z,4.57
2018-04-12T13:34:37.228Z,5.13
2018-04-12T13:37:08.177Z,4.30
2018-04-12T13:39:37.332Z,3.53
2018-04-12T13:42:06.396Z,4.10
2018-04-12T13:44:35.494Z,4.30
2018-04-12T13:47:04.547Z,4.30
2018-04-12T13:49:33.628Z,3.80
2018-04-12T13:52:02.721Z,4.00
2018-04-12T13:54:31.786Z,3.93
2018-04-12T13:57:00.907Z,4.67
2018-04-12T13:59:30.011Z,4.47
2018-04-12T14:01:59.079Z,4.17
2018-04-12T14:04:28.138Z,4.00
2018-04-12T14:06:57.236Z,3.67
2018-04-12T14:09:26.332Z,4.40
2018-04-12T14:11:55.625Z,4.13
2018-04-12T14:14:24.691Z,3.20
2018-04-12T14:16:53.843Z,4.67
2018-04-12T14:19:23.145Z,3.37
2018-04-12T14:21:52.208Z,3.90
2018-04-12T14:24:21.336Z,4.17
2018-04-12T14:26:50.391Z,4.10
2018-04-12T14:29:19.485Z,4.17
2018-04-12T14:31:48.551Z,4.10
2018-04-12T14:34:17.649Z,5.40
2018-04-12T14:36:46.711Z,4.50
2018-04-12T14:39:15.806Z,3.93
2018-04-12T14:41:44.951Z,4.40
2018-04-12T14:44:15.081Z,3.67
2018-04-12T14:46:44.147Z,4.47
2018-04-12T14:49:13.242Z,4.70
2018-04-12T14:51:42.341Z,4.60
2018-04-12T14:54:19.010Z,4.30
2018-04-12T14:56:40.607Z,4.07
2018-04-12T14:59:09.716Z,4.10
2018-04-12T15:01:38.808Z,3.93
2018-04-12T15:04:07.931Z,4.40
2018-04-12T15:06:36.986Z,4.63
2018-04-12T15:09:07.125Z,4.40
2018-04-12T15:11:36.996Z,4.43
2018-04-12T15:14:06.050Z,4.60
2018-04-12T15:16:35.890Z,4.77
2018-04-12T15:19:05.715Z,4.00
2018-04-12T15:21:35.577Z,4.97
2018-04-12T15:24:04.644Z,4.00
2018-04-12T15:26:34.470Z,4.40
2018-04-12T15:29:04.327Z,6.93
2018-04-12T15:31:33.439Z,6.70
2018-04-12T15:34:02.563Z,7.40
2018-04-12T15:36:31.726Z,7.07
2018-04-12T15:39:01.578Z,7.57
2018-04-12T15:41:30.668Z,7.20
2018-04-12T15:44:00.020Z,7.50
2018-04-12T15:46:29.147Z,8.63
2018-04-12T15:48:58.288Z,8.40
2018-04-12T15:51:27.360Z,7.57
2018-04-12T15:53:56.456Z,8.87
2018-04-12T15:56:25.550Z,8.47
2018-04-12T15:58:55.515Z,8.17
2018-04-12T16:01:24.677Z,7.60
2018-04-12T16:03:53.777Z,7.90
2018-04-12T16:06:22.846Z,7.70
2018-04-12T16:08:51.911Z,8.50
2018-04-12T16:11:21.014Z,8.10
2018-04-12T16:13:50.150Z,9.00
2018-04-12T16:16:19.248Z,8.77
2018-04-12T16:18:49.084Z,9.30
2018-04-12T16:21:18.940Z,9.47
2018-04-12T16:23:48.040Z,9.30
2018-04-12T16:26:17.112Z,10.17
2018-04-12T16:28:46.555Z,9.70
2018-04-12T16:31:15.778Z,9.70
2018-04-12T16:33:44.876Z,9.40
2018-04-12T16:36:14.036Z,10.20
2018-04-12T16:38:43.912Z,11.40
2018-04-12T16:41:13.751Z,14.63
2018-04-12T16:43:42.868Z,11.40
2018-04-12T16:46:12.051Z,43.57
2018-04-12T16:48:41.992Z,12.77
2018-04-12T16:51:11.077Z,12.30
2018-04-12T16:53:40.180Z,13.80
2018-04-12T16:56:09.292Z,30.50
2018-04-12T16:58:38.406Z,32.60
2018-04-12T17:01:07.506Z,15.33
2018-04-12T17:03:36.618Z,13.47
2018-04-12T17:06:05.784Z,12.60
2018-04-12T17:08:35.903Z,13.57
2018-04-12T17:11:05.302Z,13.53
2018-04-12T17:13:34.367Z,13.63
2018-04-12T17:16:03.444Z,12.37
2018-04-12T17:18:32.546Z,13.83
2018-04-12T17:21:02.411Z,13.57
2018-04-12T17:23:31.508Z,14.37
2018-04-12T17:26:00.579Z,17.70
2018-04-12T17:28:29.683Z,14.63
2018-04-12T17:30:58.790Z,14.43
2018-04-12T17:33:27.959Z,17.00
2018-04-12T17:35:57.064Z,16.70
2018-04-12T17:38:26.234Z,17.20
2018-04-12T17:40:56.140Z,20.27
2018-04-12T17:43:25.280Z,16.30
2018-04-12T17:45:55.152Z,17.70
2018-04-12T17:48:24.258Z,17.90
2018-04-12T17:50:53.332Z,17.97
2018-04-12T17:53:23.168Z,15.73
2018-04-12T17:55:53.058Z,17.17
2018-04-12T17:58:22.160Z,16.53
2018-04-12T18:00:51.275Z,17.10
2018-04-12T18:03:20.370Z,17.43
2018-04-12T18:05:49.557Z,17.50
2018-04-12T18:08:18.712Z,18.60
2018-04-12T18:10:47.836Z,16.97
2018-04-12T18:13:17.721Z,17.17
2018-04-12T18:15:46.797Z,17.60
2018-04-12T18:18:16.631Z,17.70
2018-04-12T18:20:46.500Z,17.80
2018-04-12T18:23:15.638Z,23.80
2018-04-12T18:25:44.745Z,19.57
2018-04-12T18:28:13.902Z,28.00
2018-04-12T18:30:42.971Z,22.40
2018-04-12T18:33:12.072Z,26.27
2018-04-12T18:35:41.193Z,25.20
2018-04-12T18:38:10.401Z,24.83
2018-04-12T18:40:39.472Z,22.30
2018-04-12T18:43:08.575Z,21.10
2018-04-12T18:45:37.718Z,24.80
2018-04-12T18:48:06.828Z,22.17
2018-04-12T18:50:35.929Z,21.60
2018-04-12T18:53:05.067Z,23.50
2018-04-12T18:55:34.956Z,22.37
2018-04-12T18:58:04.055Z,24.30
2018-04-12T19:00:33.197Z,22.63
2018-04-12T19:03:02.320Z,23.60
2018-04-12T19:05:31.404Z,23.53
2018-04-12T19:08:00.631Z,24.80
2018-04-12T19:10:29.736Z,23.07
2018-04-12T19:12:58.910Z,21.93
2018-04-12T19:15:28.425Z,21.67
2018-04-12T19:17:57.543Z,23.67
2018-04-12T19:20:26.665Z,24.43
2018-04-12T19:22:55.768Z,23.93
2018-04-12T19:25:25.078Z,22.57
2018-04-12T19:27:54.148Z,23.57
2018-04-12T19:30:23.227Z,24.20
2018-04-12T19:32:52.304Z,24.40
2018-04-12T19:35:21.399Z,25.03
2018-04-12T19:37:51.263Z,24.90
2018-04-12T19:40:20.446Z,24.00
2018-04-12T19:42:50.283Z,23.97
2018-04-12T19:45:19.360Z,25.50
2018-04-12T19:47:48.439Z,24.90
2018-04-12T19:50:17.536Z,25.53
2018-04-12T19:52:46.652Z,27.20
2018-04-12T19:55:15.760Z,26.90
2018-04-12T19:57:44.870Z,26.53
2018-04-12T20:00:13.945Z,28.10
2018-04-12T20:02:43.813Z,28.00
2018-04-12T20:05:13.409Z,28.47
2018-04-12T20:07:42.483Z,29.13
2018-04-12T20:10:12.361Z,29.67
2018-04-12T20:12:41.435Z,31.27
2018-04-12T20:15:11.307Z,28.70
2018-04-12T20:17:40.379Z,29.17
2018-04-12T20:20:10.253Z,28.43
2018-04-12T20:22:39.422Z,31.87
2018-04-12T20:25:08.600Z,31.37
2018-04-12T20:27:37.733Z,31.20
2018-04-12T20:30:07.628Z,33.07
2018-04-12T20:32:36.764Z,33.50
2018-04-12T20:35:05.862Z,32.10
2018-04-12T20:37:34.981Z,31.43
2018-04-12T20:40:04.823Z,32.80
2018-04-12T20:42:34.748Z,34.20
2018-04-12T20:45:04.612Z,33.27
2018-04-12T20:47:33.751Z,32.40
2018-04-12T20:50:02.838Z,35.70
2018-04-12T20:52:31.912Z,33.30
2018-04-12T20:55:01.775Z,33.97
2018-04-12T20:57:30.843Z,33.87
2018-04-12T21:00:00.755Z,34.37
2018-04-12T21:02:29.854Z,35.17
2018-04-12T21:04:59.283Z,35.77
2018-04-12T21:07:28.350Z,36.50
2018-04-12T21:09:57.450Z,36.20
2018-04-12T21:12:26.518Z,35.23
2018-04-12T21:14:55.711Z,33.57
2018-04-12T21:17:24.991Z,34.67
2018-04-12T21:19:54.117Z,34.40
2018-04-12T21:22:23.220Z,35.97
2018-04-12T21:24:52.325Z,35.10
2018-04-12T21:27:21.419Z,34.07
2018-04-12T21:29:51.257Z,35.30
2018-04-12T21:32:20.384Z,34.73
2018-04-12T21:34:49.484Z,34.47
2018-04-12T21:37:18.575Z,37.00
2018-04-12T21:39:47.704Z,35.07
2018-04-12T21:42:16.813Z,35.00
2018-04-12T21:44:45.928Z,35.23
2018-04-12T21:47:15.008Z,34.53
2018-04-12T21:49:44.882Z,35.93
2018-04-12T21:52:14.000Z,37.20
2018-04-12T21:54:43.071Z,34.40
2018-04-12T21:57:12.200Z,33.53
2018-04-12T21:59:41.311Z,35.20
2018-04-12T22:02:10.564Z,35.43
2018-04-12T22:04:39.632Z,36.67
2018-04-12T22:07:08.706Z,34.73
2018-04-12T22:09:38.536Z,35.70
2018-04-12T22:12:08.400Z,34.60
2018-04-12T22:14:37.520Z,35.60
2018-04-12T22:17:06.601Z,34.83
2018-04-12T22:19:35.800Z,34.90
2018-04-12T22:22:05.682Z,34.97
2018-04-12T22:24:34.759Z,34.67
2018-04-12T22:27:03.899Z,37.10
2018-04-12T22:29:33.000Z,35.83
2018-04-12T22:32:02.114Z,35.10
2018-04-12T22:34:31.212Z,34.77
2018-04-12T22:37:00.336Z,34.77
2018-04-12T22:39:29.476Z,35.10
2018-04-12T22:41:58.583Z,34.47
2018-04-12T22:44:27.656Z,34.67
2018-04-12T22:46:56.800Z,36.33
2018-04-12T22:49:25.883Z,33.67
2018-04-12T22:51:54.953Z,34.07
2018-04-12T22:54:24.783Z,35.80
2018-04-12T22:56:54.779Z,35.47
2018-04-12T22:59:23.862Z,36.23
2018-04-12T23:01:52.963Z,34.53
2018-04-12T23:04:22.074Z,34.27
2018-04-12T23:06:51.134Z,36.40
2018-04-12T23:09:20.203Z,35.10
2018-04-12T23:11:49.304Z,34.90
2018-04-12T23:14:18.408Z,37.47
2018-04-12T23:16:47.545Z,35.03
2018-04-12T23:19:16.664Z,35.17
2018-04-12T23:21:45.802Z,35.47
2018-04-12T23:24:15.676Z,35.67
2018-04-12T23:26:44.780Z,35.47
2018-04-12T23:29:13.945Z,32.80
2018-04-12T23:31:43.044Z,35.60
2018-04-12T23:34:12.143Z,35.33
2018-04-12T23:36:41.447Z,35.17
2018-04-12T23:39:10.616Z,35.70
2018-04-12T23:41:39.721Z,35.03
2018-04-12T23:44:08.798Z,36.20
2018-04-12T23:46:37.981Z,36.17
2018-04-12T23:49:07.059Z,34.80
2018-04-12T23:51:36.888Z,34.70
2018-04-12T23:54:05.960Z,35.17
2018-04-12T23:56:35.064Z,36.13
2018-04-12T23:59:04.151Z,36.73
